Time;durP1;ratioP1;P1;durP2;ratioP2;P2;SDS_P1;SDS_P2;PMS_P1;PMS_P2;Temp;Humidity;BMP_temperature;BMP_pressure;BME280_temperature;BME280_humidity;BME280_pressure;Samples;Min_cycle;Max_cycle;Signal;HPM_P1;HPM_P2
2022/01/07 00:02:04;;;;;;;1.73;0.60;;;1.40;83.80;;;;;;5042142;28;20068;-75
2022/01/07 00:04:32;;;;;;;1.08;0.50;;;1.10;85.90;;;;;;5032950;28;20485;-76
2022/01/07 00:06:58;;;;;;;2.15;0.75;;;1.20;85.00;;;;;;5041770;28;20537;-76
2022/01/07 00:09:23;;;;;;;0.90;0.57;;;1.20;84.90;;;;;;5035667;28;20037;-76
2022/01/07 00:11:49;;;;;;;1.92;0.90;;;1.10;84.80;;;;;;5026026;28;20475;-76
2022/01/07 00:14:15;;;;;;;2.80;1.00;;;1.00;86.00;;;;;;5026063;28;20431;-76
2022/01/07 00:16:41;;;;;;;4.28;1.08;;;1.10;85.40;;;;;;5026554;28;20029;-76
2022/01/07 00:19:06;;;;;;;2.75;1.52;;;1.10;85.00;;;;;;5025798;28;20487;-75
2022/01/07 00:21:32;;;;;;;3.55;0.95;;;1.10;85.20;;;;;;5026304;28;20034;-77
2022/01/07 00:23:58;;;;;;;1.77;0.75;;;0.90;86.10;;;;;;5025690;28;20064;-76
2022/01/07 00:26:23;;;;;;;2.80;1.00;;;0.90;86.30;;;;;;5026100;28;20137;-76
2022/01/07 00:28:49;;;;;;;2.47;0.90;;;0.90;86.00;;;;;;5037852;28;20029;-75
2022/01/07 00:31:15;;;;;;;3.00;1.10;;;0.80;86.60;;;;;;5034868;28;20064;-75
2022/01/07 00:33:41;;;;;;;2.30;1.20;;;0.90;86.10;;;;;;5031128;28;20200;-75
2022/01/07 00:36:06;;;;;;;2.70;1.00;;;0.90;86.60;;;;;;5038483;28;20064;-75
2022/01/07 00:38:33;;;;;;;3.55;1.48;;;0.90;86.70;;;;;;5031021;28;20029;-75
2022/01/07 00:40:58;;;;;;;2.42;1.10;;;0.90;86.30;;;;;;5035324;28;20021;-75
2022/01/07 00:43:24;;;;;;;2.25;0.77;;;0.90;86.70;;;;;;5048754;28;20406;-76
2022/01/07 00:45:50;;;;;;;2.95;1.40;;;0.90;86.70;;;;;;5039459;28;20380;-75
2022/01/07 00:48:16;;;;;;;1.75;0.80;;;0.80;86.70;;;;;;5034444;28;20033;-75
2022/01/07 00:50:42;;;;;;;0.85;0.50;;;0.90;86.70;;;;;;5032162;28;20033;-75
2022/01/07 00:53:07;;;;;;;1.38;0.70;;;1.00;85.10;;;;;;5042810;28;20499;-75
2022/01/07 00:55:35;;;;;;;1.63;0.60;;;1.30;84.40;;;;;;5029737;28;20072;-75
2022/01/07 00:58:00;;;;;;;1.45;0.52;;;1.30;84.10;;;;;;5047372;28;20060;-75
2022/01/07 01:00:27;;;;;;;1.75;0.70;;;1.40;84.20;;;;;;5048950;28;20083;-77
2022/01/07 01:02:55;;;;;;;1.38;0.57;;;0.80;86.30;;;;;;5029628;28;20404;-75
2022/01/07 01:05:22;;;;;;;1.58;0.90;;;0.70;86.60;;;;;;5045186;28;20552;-75
2022/01/07 01:07:48;;;;;;;1.80;0.60;;;0.80;86.70;;;;;;5029282;28;20049;-75
2022/01/07 01:10:17;;;;;;;2.70;0.93;;;0.70;87.10;;;;;;5033445;28;20044;-75
2022/01/07 01:12:45;;;;;;;1.73;0.70;;;0.50;88.10;;;;;;5038665;28;20029;-75
2022/01/07 01:15:13;;;;;;;2.33;0.90;;;0.50;88.10;;;;;;5048970;28;20036;-75
2022/01/07 01:17:40;;;;;;;2.63;1.40;;;0.50;88.30;;;;;;5048917;28;20102;-75
2022/01/07 01:20:08;;;;;;;3.45;1.10;;;0.40;88.60;;;;;;5035417;28;20045;-75
2022/01/07 01:22:33;;;;;;;2.90;1.13;;;0.40;88.70;;;;;;5031107;28;20084;-75
2022/01/07 01:24:59;;;;;;;3.38;0.77;;;0.30;88.80;;;;;;5043145;28;20032;-75
2022/01/07 01:27:25;;;;;;;2.55;0.65;;;0.70;86.80;;;;;;5035375;28;20381;-75
2022/01/07 01:29:51;;;;;;;2.22;0.80;;;0.80;86.50;;;;;;5029675;28;20534;-75
2022/01/07 01:32:16;;;;;;;3.13;0.75;;;0.60;87.10;;;;;;5034161;28;20060;-75
2022/01/07 01:34:43;;;;;;;2.17;0.70;;;0.60;87.50;;;;;;5030447;28;20088;-75
2022/01/07 01:37:09;;;;;;;2.45;1.10;;;0.50;87.80;;;;;;5035203;28;20049;-76
2022/01/07 01:39:34;;;;;;;1.65;0.93;;;0.40;88.80;;;;;;5036378;28;20056;-76
2022/01/07 01:42:00;;;;;;;3.10;0.90;;;0.40;89.20;;;;;;5033377;28;20033;-75
2022/01/07 01:44:26;;;;;;;7.60;1.65;;;0.40;88.90;;;;;;5049087;28;20032;-75
2022/01/07 01:46:52;;;;;;;8.02;1.98;;;0.40;89.20;;;;;;5042910;28;20045;-75
2022/01/07 01:49:18;;;;;;;1.83;0.93;;;0.60;88.20;;;;;;5029075;28;20041;-75
2022/01/07 01:51:45;;;;;;;1.20;0.68;;;0.40;89.50;;;;;;5033902;28;20029;-75
2022/01/07 01:54:11;;;;;;;2.00;0.85;;;0.60;87.20;;;;;;5032147;28;20384;-76
2022/01/07 01:56:36;;;;;;;1.42;0.60;;;0.70;87.10;;;;;;5033656;28;20033;-75
2022/01/07 01:59:02;;;;;;;1.55;0.63;;;0.80;86.50;;;;;;5041342;28;20394;-75
2022/01/07 02:01:28;;;;;;;0.98;0.45;;;0.80;86.60;;;;;;5046550;28;20575;-75
2022/01/07 02:03:54;;;;;;;1.65;0.60;;;0.60;87.30;;;;;;5034504;28;20105;-75
2022/01/07 02:06:20;;;;;;;0.95;0.50;;;0.40;89.00;;;;;;5037973;28;20112;-75
2022/01/07 02:08:47;;;;;;;1.50;0.60;;;0.20;90.30;;;;;;5032855;28;20041;-76
2022/01/07 02:11:12;;;;;;;1.60;0.70;;;0.20;90.00;;;;;;5038696;28;20029;-75
2022/01/07 02:13:38;;;;;;;1.15;0.63;;;0.40;89.30;;;;;;5032879;28;20026;-75
2022/01/07 02:16:04;;;;;;;1.17;0.75;;;0.50;88.80;;;;;;5032834;28;20090;-75
2022/01/07 02:18:30;;;;;;;0.98;0.50;;;0.60;87.80;;;;;;5033961;28;20718;-75
2022/01/07 02:20:56;;;;;;;2.25;0.60;;;0.50;88.20;;;;;;5041298;28;20033;-75
2022/01/07 02:23:21;;;;;;;1.38;0.60;;;0.50;88.40;;;;;;5033226;28;20048;-76
2022/01/07 02:25:49;;;;;;;0.82;0.45;;;0.60;87.80;;;;;;5032311;28;20034;-75
2022/01/07 02:28:14;;;;;;;0.63;0.47;;;0.60;87.40;;;;;;5032340;28;20030;-75
2022/01/07 02:30:40;;;;;;;1.55;0.63;;;0.60;88.00;;;;;;5037406;28;20044;-75
2022/01/07 02:33:06;;;;;;;4.00;0.75;;;0.70;87.00;;;;;;5048139;28;20483;-75
2022/01/07 02:35:33;;;;;;;0.77;0.45;;;0.60;86.80;;;;;;5044169;28;20349;-75
2022/01/07 02:38:00;;;;;;;0.65;0.32;;;0.70;86.40;;;;;;5042431;28;20025;-75
2022/01/07 02:40:26;;;;;;;2.05;0.77;;;0.50;87.40;;;;;;5043856;28;20041;-76
2022/01/07 02:42:52;;;;;;;0.55;0.40;;;0.50;87.80;;;;;;5041386;28;20029;-75
2022/01/07 02:45:18;;;;;;;1.88;0.80;;;0.30;89.00;;;;;;5032093;28;20029;-75
2022/01/07 02:47:49;;;;;;;1.00;0.55;;;0.40;88.40;;;;;;5034255;28;20112;-76
2022/01/07 02:50:17;;;;;;;3.05;1.58;;;0.40;88.60;;;;;;5038875;28;20029;-75
2022/01/07 02:52:43;;;;;;;1.63;0.60;;;0.50;88.30;;;;;;5045582;28;20036;-75
2022/01/07 02:55:09;;;;;;;1.55;0.45;;;0.50;88.00;;;;;;5042250;28;20029;-75
2022/01/07 02:57:35;;;;;;;2.30;1.00;;;0.10;89.40;;;;;;5040329;28;20040;-77
2022/01/07 03:00:01;;;;;;;3.05;0.93;;;-0.10;90.50;;;;;;5044250;28;20041;-76
2022/01/07 03:02:28;;;;;;;1.00;0.47;;;-0.10;90.80;;;;;;5033556;28;20026;-75
2022/01/07 03:04:53;;;;;;;3.47;0.60;;;0.00;90.10;;;;;;5051060;28;20079;-75
2022/01/07 03:07:19;;;;;;;0.95;0.30;;;0.10;89.90;;;;;;5045548;28;20029;-75
2022/01/07 03:09:45;;;;;;;1.30;0.70;;;0.30;89.30;;;;;;5050483;28;20075;-75
2022/01/07 03:12:11;;;;;;;1.08;0.50;;;0.10;89.60;;;;;;5050090;28;20049;-75
2022/01/07 03:14:37;;;;;;;1.25;0.63;;;-0.10;90.40;;;;;;5034644;28;20072;-75
2022/01/07 03:17:03;;;;;;;2.33;1.08;;;0.00;90.20;;;;;;5031648;28;20087;-76
2022/01/07 03:19:28;;;;;;;1.77;0.73;;;0.30;88.90;;;;;;5032712;28;20074;-75
2022/01/07 03:21:54;;;;;;;1.55;0.55;;;0.40;88.30;;;;;;5050157;28;20387;-76
2022/01/07 03:24:20;;;;;;;2.10;0.77;;;0.50;87.80;;;;;;5041332;28;20102;-75
2022/01/07 03:26:45;;;;;;;2.17;0.68;;;0.30;88.60;;;;;;5031609;28;20109;-75
2022/01/07 03:29:11;;;;;;;3.38;1.13;;;0.20;89.40;;;;;;5032894;28;20040;-75
2022/01/07 03:31:37;;;;;;;6.15;0.50;;;0.10;89.60;;;;;;5045023;28;20060;-75
2022/01/07 03:34:03;;;;;;;1.58;0.70;;;0.00;90.00;;;;;;5040566;28;20040;-76
2022/01/07 03:36:28;;;;;;;1.67;0.52;;;0.00;90.00;;;;;;5035913;28;20044;-75
2022/01/07 03:38:54;;;;;;;0.88;0.40;;;0.00;90.10;;;;;;5045736;28;20057;-75
2022/01/07 03:41:20;;;;;;;2.33;0.85;;;0.20;89.40;;;;;;5048291;28;20476;-75
2022/01/07 03:43:46;;;;;;;1.95;0.60;;;0.30;89.30;;;;;;5043834;28;20436;-76
2022/01/07 03:46:11;;;;;;;4.45;0.65;;;0.30;89.10;;;;;;5031397;28;20038;-76
2022/01/07 03:48:37;;;;;;;0.47;0.30;;;0.20;89.30;;;;;;5039214;28;20028;-75
2022/01/07 03:51:03;;;;;;;1.58;0.60;;;0.20;89.30;;;;;;5030919;28;20115;-76
2022/01/07 03:53:28;;;;;;;2.15;0.80;;;0.10;89.80;;;;;;5031186;28;20389;-75
2022/01/07 03:55:54;;;;;;;1.48;0.70;;;0.20;89.60;;;;;;5040413;28;20399;-75
2022/01/07 03:58:21;;;;;;;1.45;0.50;;;0.30;89.20;;;;;;5037963;28;20500;-75
2022/01/07 04:00:47;;;;;;;0.88;0.40;;;0.40;88.50;;;;;;5031569;28;20057;-74
2022/01/07 04:03:16;;;;;;;1.05;0.47;;;0.30;89.40;;;;;;5031568;28;20045;-76
2022/01/07 04:05:42;;;;;;;1.70;0.65;;;0.60;88.40;;;;;;5036277;28;20112;-75
2022/01/07 04:08:08;;;;;;;0.75;0.30;;;0.60;88.30;;;;;;5034523;28;20026;-75
2022/01/07 04:10:34;;;;;;;1.65;0.65;;;0.40;89.00;;;;;;5022915;28;20494;-75
2022/01/07 04:13:00;;;;;;;1.70;0.60;;;0.40;88.90;;;;;;5034687;28;20044;-75
2022/01/07 04:15:26;;;;;;;1.80;0.47;;;0.40;88.50;;;;;;5023126;28;20044;-75
2022/01/07 04:17:54;;;;;;;0.40;0.20;;;0.50;88.40;;;;;;5022641;28;20037;-76
2022/01/07 04:20:26;;;;;;;1.13;0.50;;;0.30;89.40;;;;;;5023677;28;20022;-76
2022/01/07 04:22:53;;;;;;;2.72;1.05;;;0.20;89.40;;;;;;5024709;28;20036;-75
2022/01/07 04:25:20;;;;;;;1.58;0.63;;;0.10;90.00;;;;;;5031708;28;20025;-76
2022/01/07 04:27:53;;;;;;;0.65;0.50;;;0.10;90.00;;;;;;5031518;28;20033;-75
2022/01/07 04:30:19;;;;;;;1.92;0.70;;;0.20;89.70;;;;;;5029183;28;20119;-75
2022/01/07 04:32:45;;;;;;;3.13;0.68;;;0.30;89.40;;;;;;5031408;28;20069;-75
2022/01/07 04:35:13;;;;;;;2.15;0.73;;;0.00;90.10;;;;;;5043463;28;20127;-75
2022/01/07 04:37:39;;;;;;;1.48;0.57;;;0.10;90.00;;;;;;5043896;28;20125;-75
2022/01/07 04:40:06;;;;;;;0.95;0.43;;;0.20;90.00;;;;;;5044292;28;20550;-75
2022/01/07 04:42:32;;;;;;;1.73;0.50;;;0.10;89.80;;;;;;5035729;28;20072;-75
2022/01/07 04:44:58;;;;;;;2.25;0.60;;;0.20;89.90;;;;;;5035797;28;20109;-74
2022/01/07 04:47:25;;;;;;;1.15;0.60;;;0.40;89.30;;;;;;5038883;28;20479;-75
2022/01/07 04:49:50;;;;;;;1.65;0.65;;;0.40;89.80;;;;;;5030997;28;20052;-75
2022/01/07 04:52:17;;;;;;;2.97;1.35;;;0.40;89.40;;;;;;5029072;28;20460;-75
2022/01/07 04:54:44;;;;;;;1.50;0.80;;;0.40;89.50;;;;;;5022981;28;20021;-75
2022/01/07 04:57:10;;;;;;;1.85;0.70;;;0.20;90.00;;;;;;5032347;28;20487;-76
2022/01/07 04:59:36;;;;;;;2.15;0.63;;;0.10;90.00;;;;;;5024821;28;20026;-75
2022/01/07 05:02:01;;;;;;;0.85;0.57;;;0.00;90.20;;;;;;5035659;28;20069;-75
2022/01/07 05:04:27;;;;;;;1.55;0.63;;;-0.30;90.90;;;;;;5024840;28;20018;-75
2022/01/07 05:06:53;;;;;;;2.33;0.75;;;-0.20;90.50;;;;;;5028112;28;20522;-76
2022/01/07 05:09:19;;;;;;;1.30;0.45;;;-0.40;90.80;;;;;;5031675;28;20052;-75
2022/01/07 05:11:47;;;;;;;1.20;0.60;;;-0.40;90.90;;;;;;5027619;28;20025;-75
2022/01/07 05:14:13;;;;;;;2.28;0.80;;;-0.50;91.00;;;;;;5036167;28;20041;-77
2022/01/07 05:16:39;;;;;;;2.22;1.20;;;-0.60;91.30;;;;;;5025183;28;20128;-75
2022/01/07 05:19:05;;;;;;;2.13;0.80;;;-0.50;91.20;;;;;;5023513;28;20109;-75
2022/01/07 05:21:31;;;;;;;2.22;0.68;;;-0.50;91.10;;;;;;5026906;28;20032;-75
2022/01/07 05:23:58;;;;;;;1.88;0.75;;;-0.40;90.90;;;;;;5031188;28;20026;-76
2022/01/07 05:26:24;;;;;;;1.33;0.60;;;0.00;90.30;;;;;;5023629;28;20034;-74
2022/01/07 05:28:52;;;;;;;1.75;0.60;;;0.00;90.30;;;;;;5022700;28;20038;-75
2022/01/07 05:31:19;;;;;;;1.77;0.55;;;0.20;89.80;;;;;;5028388;28;20533;-76
2022/01/07 05:33:45;;;;;;;1.88;0.75;;;0.30;89.40;;;;;;5038152;28;20707;-77
2022/01/07 05:36:11;;;;;;;2.47;0.63;;;0.20;90.00;;;;;;5041812;28;20032;-76
2022/01/07 05:38:37;;;;;;;1.98;0.73;;;0.20;89.40;;;;;;5033495;28;20114;-75
2022/01/07 05:41:03;;;;;;;0.68;0.43;;;0.20;89.60;;;;;;5025859;28;20033;-75
2022/01/07 05:43:29;;;;;;;2.33;0.40;;;0.30;89.00;;;;;;5026214;28;20045;-76
2022/01/07 05:45:56;;;;;;;1.17;0.50;;;0.20;89.40;;;;;;5033718;28;20033;-74
2022/01/07 05:48:22;;;;;;;1.20;0.50;;;0.20;89.60;;;;;;5029480;28;20038;-75
2022/01/07 05:50:49;;;;;;;1.65;0.60;;;0.30;89.10;;;;;;5030246;28;20044;-75
2022/01/07 05:53:14;;;;;;;2.38;0.60;;;0.20;88.90;;;;;;5025644;28;20033;-75
2022/01/07 05:55:40;;;;;;;2.13;0.77;;;0.20;89.30;;;;;;5035419;28;20025;-75
2022/01/07 05:58:06;;;;;;;2.47;0.70;;;0.20;89.70;;;;;;5034437;28;20045;-75
2022/01/07 06:00:32;;;;;;;2.37;0.80;;;0.10;89.50;;;;;;5025552;28;20037;-76
2022/01/07 06:02:57;;;;;;;1.05;0.57;;;0.10;89.30;;;;;;5028010;28;20041;-75
2022/01/07 06:05:23;;;;;;;0.88;0.50;;;0.20;89.30;;;;;;5026730;28;20030;-75
2022/01/07 06:07:49;;;;;;;1.33;0.95;;;0.30;88.60;;;;;;5044220;28;20029;-75
2022/01/07 06:10:15;;;;;;;1.50;0.60;;;0.20;89.60;;;;;;5025243;28;20667;-75
2022/01/07 06:12:40;;;;;;;1.77;0.70;;;0.20;89.50;;;;;;5034012;28;20079;-74
2022/01/07 06:15:07;;;;;;;2.00;0.77;;;0.10;90.00;;;;;;5025564;28;20041;-75
2022/01/07 06:17:33;;;;;;;1.65;0.73;;;0.10;89.80;;;;;;5025294;28;20048;-76
2022/01/07 06:19:59;;;;;;;1.87;0.60;;;0.10;90.00;;;;;;5025956;28;20033;-75
2022/01/07 06:22:24;;;;;;;1.33;0.60;;;0.10;89.60;;;;;;5029516;28;20099;-75
2022/01/07 06:24:50;;;;;;;1.73;0.70;;;0.20;89.70;;;;;;5041849;28;20033;-75
2022/01/07 06:27:16;;;;;;;1.27;0.37;;;0.20;89.40;;;;;;5033772;28;20529;-75
2022/01/07 06:29:42;;;;;;;1.45;0.80;;;0.20;89.20;;;;;;5028623;28;20033;-75
2022/01/07 06:32:08;;;;;;;2.17;0.70;;;0.20;89.40;;;;;;5025225;28;20053;-75
2022/01/07 06:34:34;;;;;;;1.40;0.60;;;0.30;89.30;;;;;;5026131;28;20500;-75
2022/01/07 06:37:02;;;;;;;3.55;0.80;;;0.20;89.90;;;;;;5032657;28;20186;-76
2022/01/07 06:39:28;;;;;;;2.10;0.90;;;0.10;89.40;;;;;;5027765;28;20121;-75
2022/01/07 06:41:55;;;;;;;1.85;0.73;;;0.20;89.70;;;;;;5036265;28;20036;-75
2022/01/07 06:44:21;;;;;;;1.95;0.50;;;0.10;89.70;;;;;;5026842;28;20036;-75
2022/01/07 06:46:47;;;;;;;1.43;0.63;;;0.20;90.10;;;;;;5025699;28;20018;-76
2022/01/07 06:49:15;;;;;;;2.75;0.93;;;0.00;91.10;;;;;;5027036;28;20129;-75
2022/01/07 06:51:42;;;;;;;0.98;0.73;;;0.00;90.50;;;;;;5035560;28;20047;-76
2022/01/07 06:54:11;;;;;;;0.85;0.52;;;0.10;90.00;;;;;;5041557;28;21480;-75
2022/01/07 06:56:41;;;;;;;0.75;0.40;;;0.20;89.10;;;;;;5033614;28;20083;-76
2022/01/07 06:59:07;;;;;;;2.05;0.70;;;0.20;89.60;;;;;;5028647;28;20032;-77
2022/01/07 07:01:33;;;;;;;1.80;0.50;;;0.20;90.00;;;;;;5032659;28;20026;-76
2022/01/07 07:03:59;;;;;;;3.60;0.80;;;0.20;89.40;;;;;;5033535;28;20365;-76
2022/01/07 07:06:25;;;;;;;1.30;0.43;;;0.30;88.60;;;;;;5037693;28;20056;-76
2022/01/07 07:08:50;;;;;;;2.92;0.75;;;0.20;90.00;;;;;;5032989;28;20030;-76
2022/01/07 07:11:16;;;;;;;1.60;0.70;;;0.30;89.00;;;;;;5028545;28;20049;-75
2022/01/07 07:13:42;;;;;;;1.50;0.60;;;0.30;89.30;;;;;;5032264;28;20083;-76
2022/01/07 07:16:08;;;;;;;1.13;0.47;;;0.30;88.20;;;;;;5040166;28;20499;-75
2022/01/07 07:18:34;;;;;;;1.95;0.93;;;0.20;88.40;;;;;;5024647;28;20036;-76
2022/01/07 07:20:59;;;;;;;0.88;0.52;;;0.30;88.50;;;;;;5024136;28;20033;-76
2022/01/07 07:23:26;;;;;;;2.22;0.88;;;0.30;88.40;;;;;;5029558;28;20475;-76
2022/01/07 07:25:51;;;;;;;3.22;0.70;;;0.30;88.00;;;;;;5043204;28;20036;-76
2022/01/07 07:28:19;;;;;;;4.00;1.07;;;0.30;88.00;;;;;;5036671;28;20027;-76
2022/01/07 07:30:45;;;;;;;1.80;0.80;;;0.20;88.20;;;;;;5037565;28;20106;-77
2022/01/07 07:33:30;;;;;;;2.45;0.80;;;0.30;88.60;;;;;;5034920;28;20034;-76
2022/01/07 07:38:43;;;;;;;0.82;0.40;;;0.30;88.20;;;;;;5027117;28;20134;-75
2022/01/07 07:41:12;;;;;;;1.15;0.60;;;0.30;87.90;;;;;;5031288;28;20356;-75
2022/01/07 07:43:39;;;;;;;1.75;0.77;;;0.40;88.30;;;;;;5023912;28;20029;-76
2022/01/07 07:46:05;;;;;;;1.15;0.70;;;0.40;88.40;;;;;;5025359;28;20025;-77
2022/01/07 07:48:33;;;;;;;1.20;0.63;;;0.40;88.50;;;;;;5032015;28;20127;-76
2022/01/07 07:50:59;;;;;;;1.85;0.57;;;0.40;89.30;;;;;;5027850;28;20022;-76
2022/01/07 07:53:25;;;;;;;1.88;0.55;;;0.40;88.20;;;;;;5026459;28;20036;-76
2022/01/07 07:55:53;;;;;;;1.77;0.57;;;0.40;88.00;;;;;;5023483;28;20041;-76
2022/01/07 07:58:24;;;;;;;1.75;0.60;;;0.40;88.40;;;;;;5029643;28;20041;-77
2022/01/07 08:00:50;;;;;;;2.95;0.90;;;0.30;89.10;;;;;;5039075;28;20103;-77
2022/01/07 08:03:17;;;;;;;2.22;0.85;;;0.40;88.60;;;;;;5031159;28;20087;-76
2022/01/07 08:05:42;;;;;;;1.88;0.70;;;0.30;87.70;;;;;;5042280;28;20025;-76
2022/01/07 08:08:08;;;;;;;0.90;0.50;;;0.30;88.10;;;;;;5029928;28;20064;-76
2022/01/07 08:10:37;;;;;;;2.10;0.80;;;0.40;88.70;;;;;;5028133;28;20029;-75
2022/01/07 08:18:23;;;;;;;3.00;1.00;;;0.40;89.00;;;;;;5037593;28;20423;-76
2022/01/07 08:20:52;;;;;;;2.20;0.90;;;0.40;88.00;;;;;;5023127;28;20057;-76
2022/01/07 08:23:19;;;;;;;2.30;0.90;;;0.40;88.30;;;;;;5037236;28;20064;-76
2022/01/07 08:25:45;;;;;;;1.25;0.73;;;0.40;87.80;;;;;;5033797;28;20029;-76
2022/01/07 08:28:12;;;;;;;2.25;1.25;;;0.50;88.90;;;;;;5036163;28;20455;-75
2022/01/07 08:30:59;;;;;;;2.65;1.00;;;0.50;88.90;;;;;;5027594;28;20357;-75
2022/01/07 08:36:19;;;;;;;3.03;0.93;;;0.40;88.00;;;;;;5004734;28;20033;-75
2022/01/07 08:38:45;;;;;;;2.08;0.70;;;0.40;88.00;;;;;;5028609;28;20544;-77
2022/01/07 08:41:11;;;;;;;2.97;1.13;;;0.40;88.00;;;;;;5024747;28;20037;-74
2022/01/07 08:43:37;;;;;;;1.67;0.70;;;0.50;88.40;;;;;;5028110;28;20037;-76
2022/01/07 08:46:07;;;;;;;1.52;0.90;;;0.40;87.40;;;;;;5024561;28;20088;-77
2022/01/07 08:48:35;;;;;;;2.85;0.70;;;0.40;87.20;;;;;;5034221;28;20590;-76
2022/01/07 08:51:01;;;;;;;1.05;0.50;;;0.40;87.30;;;;;;5016160;28;20613;-77
2022/01/07 08:53:27;;;;;;;3.65;1.10;;;0.40;86.60;;;;;;5029601;28;20076;-77
2022/01/07 08:55:53;;;;;;;1.70;0.82;;;0.50;86.60;;;;;;5023429;28;20559;-76
2022/01/07 08:58:33;;;;;;;3.42;1.38;;;0.60;86.90;;;;;;5029537;28;20024;-77
2022/01/07 09:01:00;;;;;;;2.67;1.40;;;0.60;86.80;;;;;;5030260;28;20846;-78
2022/01/07 09:03:42;;;;;;;4.50;0.90;;;0.70;87.50;;;;;;5024032;28;20037;-81
2022/01/07 09:06:08;;;;;;;1.38;0.75;;;0.70;87.30;;;;;;5034894;28;20030;-77
2022/01/07 09:08:34;;;;;;;3.20;1.02;;;0.70;88.20;;;;;;5032670;28;20580;-75
2022/01/07 09:11:00;;;;;;;2.10;0.90;;;0.60;88.50;;;;;;5038285;28;20037;-78
2022/01/07 09:13:26;;;;;;;3.45;1.42;;;0.60;88.40;;;;;;5032182;28;20033;-75
2022/01/07 09:15:51;;;;;;;2.30;1.00;;;0.40;87.60;;;;;;5025690;28;20404;-75
2022/01/07 09:18:18;;;;;;;2.67;0.90;;;0.40;87.80;;;;;;5026534;28;20029;-75
2022/01/07 09:20:45;;;;;;;3.53;1.98;;;0.40;87.30;;;;;;5032689;28;20025;-75
2022/01/07 09:23:12;;;;;;;2.75;1.13;;;0.40;87.60;;;;;;5035081;28;20103;-74
2022/01/07 09:25:38;;;;;;;3.25;1.20;;;0.30;88.30;;;;;;5025157;28;20607;-74
2022/01/07 09:28:06;;;;;;;4.43;1.17;;;0.20;88.90;;;;;;5025505;28;20037;-79
2022/01/07 09:30:32;;;;;;;5.45;1.20;;;0.30;88.30;;;;;;5025318;28;20134;-76
2022/01/07 09:32:58;;;;;;;2.78;1.30;;;0.30;88.60;;;;;;5026823;28;20568;-77
2022/01/07 09:35:24;;;;;;;4.95;1.80;;;0.30;88.40;;;;;;5031665;28;20033;-77
2022/01/07 09:37:50;;;;;;;3.00;1.40;;;0.30;88.30;;;;;;5042718;28;20059;-77
2022/01/07 09:40:17;;;;;;;4.53;1.95;;;0.30;89.20;;;;;;5042104;28;20033;-79
2022/01/07 09:43:03;;;;;;;6.60;2.45;;;0.30;89.70;;;;;;5034188;28;20052;-76
2022/01/07 09:45:31;;;;;;;6.00;2.88;;;0.20;90.10;;;;;;5025495;28;20025;-77
2022/01/07 09:47:58;;;;;;;3.83;1.30;;;0.20;90.40;;;;;;5029947;28;20031;-76
2022/01/07 09:50:25;;;;;;;8.23;4.15;;;0.20;89.60;;;;;;5025563;28;20031;-75
2022/01/07 09:52:51;;;;;;;6.90;2.08;;;0.20;90.10;;;;;;5027682;28;20029;-75
2022/01/07 09:55:17;;;;;;;3.25;1.67;;;0.30;90.30;;;;;;5026629;28;20633;-74
2022/01/07 09:57:43;;;;;;;4.35;2.35;;;0.30;89.60;;;;;;5025661;28;20033;-75
2022/01/07 10:00:10;;;;;;;8.63;2.08;;;0.40;90.90;;;;;;5025361;28;20033;-75
2022/01/07 10:02:36;;;;;;;6.78;2.58;;;0.70;93.00;;;;;;5027767;28;20037;-75
2022/01/07 10:05:16;;;;;;;5.22;3.00;;;0.60;89.30;;;;;;5033494;28;20040;-76
2022/01/07 10:07:43;;;;;;;3.88;1.60;;;0.40;89.00;;;;;;5041670;28;20029;-76
2022/01/07 10:10:19;;;;;;;3.30;1.40;;;0.30;89.20;;;;;;5045066;28;20484;-75
2022/01/07 10:13:00;;;;;;;3.40;1.80;;;0.30;88.30;;;;;;5043635;28;20025;-75
2022/01/07 10:15:37;;;;;;;5.63;1.20;;;0.40;89.90;;;;;;5027733;28;20025;-75
2022/01/07 10:18:06;;;;;;;2.45;1.23;;;0.50;90.60;;;;;;5037139;28;20026;-76
2022/01/07 10:20:33;;;;;;;2.90;1.40;;;0.40;90.60;;;;;;5025329;28;20100;-75
2022/01/07 10:23:03;;;;;;;4.00;1.30;;;0.40;90.80;;;;;;5025714;28;20083;-76
2022/01/07 10:25:31;;;;;;;4.53;1.38;;;0.40;90.60;;;;;;5025221;28;20032;-76
2022/01/07 10:28:21;;;;;;;4.63;1.70;;;0.40;90.70;;;;;;5024985;28;20472;-75
2022/01/07 10:30:50;;;;;;;4.43;1.92;;;0.30;89.30;;;;;;5027937;28;20094;-75
2022/01/07 10:33:24;;;;;;;5.95;2.63;;;0.50;90.50;;;;;;5024650;28;20038;-76
2022/01/07 10:35:52;;;;;;;4.88;1.88;;;0.60;90.20;;;;;;5025639;28;20029;-75
2022/01/07 10:38:26;;;;;;;3.80;1.80;;;0.50;90.10;;;;;;5040854;28;20039;-75
2022/01/07 10:40:54;;;;;;;3.50;1.27;;;0.50;89.70;;;;;;5039517;28;20464;-75
2022/01/07 10:43:22;;;;;;;4.78;1.58;;;0.60;90.10;;;;;;5030121;28;20036;-75
2022/01/07 10:45:59;;;;;;;3.42;1.40;;;0.60;90.80;;;;;;5030425;28;20554;-75
2022/01/07 10:48:43;;;;;;;3.22;1.20;;;0.40;91.00;;;;;;5039061;28;20029;-76
2022/01/07 10:51:18;;;;;;;4.50;1.77;;;0.30;91.40;;;;;;5034823;28;20674;-75
2022/01/07 10:53:50;;;;;;;3.42;1.00;;;0.40;91.20;;;;;;5033377;28;20615;-76
2022/01/07 10:56:19;;;;;;;3.90;1.05;;;0.40;90.80;;;;;;5031256;28;20036;-75
2022/01/07 10:58:47;;;;;;;1.95;1.20;;;0.40;88.30;;;;;;5030144;28;20514;-75
2022/01/07 11:01:19;;;;;;;6.38;1.48;;;0.40;88.20;;;;;;5022996;28;20037;-76
2022/01/07 11:03:50;;;;;;;2.08;1.10;;;0.60;89.30;;;;;;5034984;28;20037;-75
2022/01/07 11:06:16;;;;;;;1.70;0.90;;;0.60;90.70;;;;;;5031056;28;20029;-74
2022/01/07 11:08:42;;;;;;;3.95;1.70;;;0.60;89.70;;;;;;5040422;28;20505;-75
2022/01/07 11:11:10;;;;;;;2.17;1.15;;;0.60;88.70;;;;;;5023962;28;20037;-76
2022/01/07 11:13:37;;;;;;;1.70;1.00;;;0.70;88.40;;;;;;5029226;28;20021;-75
2022/01/07 11:16:05;;;;;;;6.40;1.63;;;0.70;90.00;;;;;;5036286;28;20155;-75
2022/01/07 11:18:31;;;;;;;4.57;1.60;;;0.80;88.00;;;;;;5029581;28;20029;-75
2022/01/07 11:20:59;;;;;;;3.65;1.48;;;0.90;87.40;;;;;;5043986;28;20036;-75
2022/01/07 11:23:25;;;;;;;3.60;1.40;;;0.90;87.90;;;;;;5042595;28;20516;-75
2022/01/07 11:26:03;;;;;;;3.08;0.90;;;1.00;87.90;;;;;;5033884;28;20025;-74
2022/01/07 11:28:29;;;;;;;2.95;1.42;;;1.00;87.10;;;;;;5013687;28;20072;-75
2022/01/07 11:31:10;;;;;;;12.30;1.60;;;1.10;86.20;;;;;;5039323;28;20097;-75
2022/01/07 11:33:37;;;;;;;3.88;1.55;;;1.40;86.10;;;;;;5023945;28;20029;-75
2022/01/07 11:36:03;;;;;;;7.32;4.13;;;1.50;84.70;;;;;;5023723;28;20036;-75
2022/01/07 11:38:35;;;;;;;12.27;8.55;;;1.70;85.70;;;;;;5022842;28;20033;-75
2022/01/07 11:41:02;;;;;;;6.78;3.92;;;2.10;86.50;;;;;;5033838;28;20041;-75
2022/01/07 11:43:34;;;;;;;10.07;7.90;;;2.20;85.50;;;;;;5025951;28;20051;-75
2022/01/07 11:46:20;;;;;;;5.45;3.67;;;2.10;84.30;;;;;;5027888;28;20040;-75
2022/01/07 11:48:46;;;;;;;4.68;2.22;;;2.10;84.70;;;;;;5033432;28;20511;-75
2022/01/07 11:51:15;;;;;;;4.55;2.80;;;2.20;84.10;;;;;;5042757;28;20029;-75
2022/01/07 11:53:41;;;;;;;3.92;1.70;;;2.40;83.90;;;;;;5034563;28;20032;-75
2022/01/07 11:56:12;;;;;;;4.43;2.45;;;2.50;83.10;;;;;;5025029;28;20025;-75
2022/01/07 11:58:43;;;;;;;4.45;2.60;;;2.60;82.10;;;;;;5037369;28;20673;-75
2022/01/07 12:01:31;;;;;;;6.57;3.55;;;2.80;82.50;;;;;;5043060;28;20029;-75
2022/01/07 12:04:19;;;;;;;6.78;4.97;;;3.00;82.70;;;;;;5035059;28;20120;-75
2022/01/07 12:06:47;;;;;;;7.88;4.43;;;3.00;81.60;;;;;;5023048;28;20045;-75
2022/01/07 12:09:26;;;;;;;2.65;1.50;;;3.10;82.20;;;;;;5028074;28;20051;-76
2022/01/07 12:12:06;;;;;;;27.20;16.33;;;3.20;82.80;;;;;;5023915;28;20025;-75
2022/01/07 12:14:51;;;;;;;14.98;7.40;;;3.40;81.30;;;;;;5022906;28;20030;-75
2022/01/07 12:17:19;;;;;;;10.35;5.20;;;3.40;81.10;;;;;;5029805;28;20032;-75
2022/01/07 12:20:07;;;;;;;4.93;2.42;;;3.50;81.60;;;;;;5024972;28;20112;-75
2022/01/07 12:22:33;;;;;;;7.65;4.40;;;3.50;81.60;;;;;;5039502;28;20049;-75
2022/01/07 12:25:00;;;;;;;14.85;11.18;;;3.60;82.60;;;;;;5022762;28;20028;-76
2022/01/07 12:27:26;;;;;;;10.00;4.90;;;3.70;81.90;;;;;;5022316;28;20044;-75
2022/01/07 12:30:00;;;;;;;3.05;1.73;;;3.70;82.00;;;;;;5031955;28;20049;-76
2022/01/07 12:32:37;;;;;;;4.60;2.33;;;3.60;81.30;;;;;;5042571;28;20068;-75
2022/01/07 12:35:06;;;;;;;4.10;2.10;;;3.60;81.70;;;;;;5036581;28;20097;-76
2022/01/07 12:37:32;;;;;;;3.53;1.58;;;3.60;80.80;;;;;;5036680;28;20094;-75
2022/01/07 12:40:04;;;;;;;2.58;1.20;;;3.60;80.90;;;;;;5023225;28;20030;-75
2022/01/07 12:42:36;;;;;;;2.63;1.38;;;3.60;81.50;;;;;;5029867;28;20567;-75
2022/01/07 12:45:01;;;;;;;5.80;2.30;;;3.40;81.80;;;;;;5025745;28;20116;-76
2022/01/07 12:47:29;;;;;;;4.68;1.98;;;3.70;82.60;;;;;;5030296;28;20431;-75
2022/01/07 12:49:57;;;;;;;3.38;1.40;;;3.80;81.80;;;;;;5039722;28;20029;-75
2022/01/07 12:52:29;;;;;;;7.95;1.60;;;3.60;81.70;;;;;;5038292;28;20033;-76
2022/01/07 12:55:00;;;;;;;6.82;2.15;;;3.50;82.30;;;;;;5028918;28;20484;-75
2022/01/07 12:57:37;;;;;;;5.35;1.67;;;3.60;83.20;;;;;;5036671;28;20143;-75
2022/01/07 13:00:08;;;;;;;3.42;1.40;;;3.70;82.90;;;;;;5037992;28;20029;-75
2022/01/07 13:02:34;;;;;;;4.60;2.25;;;3.60;81.30;;;;;;5037311;28;20045;-76
2022/01/07 13:05:27;;;;;;;3.47;1.55;;;3.50;81.40;;;;;;5028081;28;20071;-76
2022/01/07 13:07:57;;;;;;;3.22;1.40;;;3.40;80.80;;;;;;5026315;28;20030;-76
2022/01/07 13:10:35;;;;;;;170.80;76.80;;;3.40;80.10;;;;;;5031714;28;20067;-75